Terminal Aerodrome Forecast
Issued by NWS Jackson, MS

Home | Current Version | Previous Version | Text Only | Print | Product List | Glossary On
Versions: 1 2 3 4 5 6 7 8 9 10 11 12 13 14
000
FTUS44 KJAN 281700 AAA
TAFHBG
TAF AMD
KHBG 281733Z 2818/2918 29012KT P6SM VCTS SCT040CB BKN250
     FM290200 31003KT P6SM SKC
     FM291000 32004KT 4SM BR SKC
     FM291300 35005KT P6SM SKC=

USA.gov is the U.S. government's official web portal to all federal, state and local government web resources and services.